Time;durP1;ratioP1;P1;durP2;ratioP2;P2;SDS_P1;SDS_P2;PMS_P1;PMS_P2;Temp;Humidity;BMP_temperature;BMP_pressure;BME280_temperature;BME280_humidity;BME280_pressure;Samples;Min_cycle;Max_cycle;Signal;HPM_P1;HPM_P2
2022/01/30 00:01:18;;;;;;;3.70;2.90;;;;;;;5.38;90.49;98379.62;84647;1327;22724;-81
2022/01/30 00:03:27;;;;;;;3.10;2.40;;;;;;;5.40;90.41;98381.05;84673;1332;25567;-83
2022/01/30 00:05:36;;;;;;;2.80;2.60;;;;;;;5.42;90.26;98371.95;84681;1330;25454;-84
2022/01/30 00:07:45;;;;;;;3.60;2.40;;;;;;;5.44;90.22;98375.66;84729;1331;22598;-83
2022/01/30 00:09:53;;;;;;;3.90;2.00;;;;;;;5.46;90.06;98369.37;84687;1332;24324;-84
2022/01/30 00:12:05;;;;;;;2.90;2.10;;;;;;;5.48;90.21;98368.58;84724;1330;22615;-84
2022/01/30 00:14:19;;;;;;;2.30;1.90;;;;;;;5.50;90.08;98381.27;84693;1330;22610;-84
2022/01/30 00:16:32;;;;;;;3.10;1.70;;;;;;;5.51;90.17;98385.52;84685;1332;22611;-77
2022/01/30 00:18:53;;;;;;;3.90;1.70;;;;;;;5.53;90.03;98392.50;84701;1329;24333;-76
2022/01/30 00:21:10;;;;;;;3.70;1.60;;;;;;;5.54;89.86;98406.31;84613;1329;22859;-76
2022/01/30 00:23:23;;;;;;;2.20;1.20;;;;;;;5.54;89.76;98388.34;84665;1329;22712;-84
2022/01/30 00:25:45;;;;;;;2.10;1.10;;;;;;;5.51;89.01;98416.66;84689;1330;22712;-84
2022/01/30 00:28:02;;;;;;;3.80;1.20;;;;;;;5.48;88.95;98425.45;84708;1329;22599;-84
2022/01/30 00:30:16;;;;;;;6.30;0.80;;;;;;;5.41;87.97;98423.73;84670;1329;22607;-84
2022/01/30 00:32:24;;;;;;;4.50;1.00;;;;;;;5.32;87.73;98438.13;84653;1330;22618;-84
2022/01/30 00:34:36;;;;;;;1.60;1.00;;;;;;;5.28;87.90;98465.32;84730;1330;23004;-84
2022/01/30 00:36:45;;;;;;;2.50;1.20;;;;;;;5.24;87.88;98464.48;84696;1330;22848;-75
2022/01/30 00:38:56;;;;;;;3.40;0.80;;;;;;;5.21;87.88;98461.84;84689;1329;22587;-74
2022/01/30 00:41:05;;;;;;;1.60;0.60;;;;;;;5.17;87.43;98468.94;84656;1329;25353;-76
2022/01/30 00:43:14;;;;;;;4.10;1.30;;;;;;;5.12;87.11;98463.96;84722;1330;22937;-84
2022/01/30 00:45:22;;;;;;;5.20;1.10;;;;;;;5.08;86.81;98464.16;84761;1328;22676;-84
2022/01/30 00:47:34;;;;;;;4.60;1.10;;;;;;;5.03;86.22;98468.88;84643;1325;24197;-84
2022/01/30 00:49:42;;;;;;;4.20;1.50;;;;;;;4.95;85.77;98455.93;84663;1329;22891;-85
2022/01/30 00:51:54;;;;;;;5.80;1.10;;;;;;;4.87;85.36;98464.62;84675;1328;23976;-76
2022/01/30 00:54:10;;;;;;;4.90;1.20;;;;;;;4.77;85.34;98466.79;84714;1329;25278;-76
2022/01/30 00:56:21;;;;;;;4.50;1.00;;;;;;;4.68;85.19;98463.21;84710;1330;22616;-76
2022/01/30 00:58:30;;;;;;;4.50;1.10;;;;;;;4.62;85.56;98468.64;84576;1330;23977;-77
2022/01/30 01:00:38;;;;;;;2.20;0.90;;;;;;;4.60;85.67;98476.50;84699;1330;22930;-77
2022/01/30 01:02:47;;;;;;;5.20;1.10;;;;;;;4.59;84.84;98465.17;84718;1328;22603;-85
2022/01/30 01:05:04;;;;;;;9.10;1.40;;;;;;;4.55;84.13;98469.30;84686;1328;22845;-85
2022/01/30 01:07:18;;;;;;;6.40;1.10;;;;;;;4.48;84.07;98473.95;84694;1330;22703;-84
2022/01/30 01:09:36;;;;;;;4.20;1.30;;;;;;;4.40;83.05;98475.83;84738;1330;25501;-84
2022/01/30 01:12:23;;;;;;;6.30;1.30;;;;;;;4.32;82.46;98479.33;84729;1330;24307;-77
2022/01/30 01:24:07;;;;;;;4.30;1.80;;;;;;;3.85;82.09;98482.65;84638;1333;22905;-84
2022/01/30 01:26:16;;;;;;;9.60;3.20;;;;;;;3.77;82.46;98476.59;84644;1329;22601;-83
2022/01/30 01:28:29;;;;;;;5.60;2.10;;;;;;;3.71;82.09;98476.68;84704;1329;24014;-84
2022/01/30 01:30:38;;;;;;;7.20;1.70;;;;;;;3.66;82.17;98478.79;84693;1329;24275;-83
2022/01/30 01:32:50;;;;;;;7.40;2.70;;;;;;;3.64;82.26;98466.27;84751;1324;22603;-84
2022/01/30 01:34:59;;;;;;;4.70;3.10;;;;;;;3.64;82.48;98466.25;83967;1328;1003855;-85
2022/01/30 01:37:11;;;;;;;7.60;1.40;;;;;;;3.63;82.35;98467.49;84711;1329;22690;-76
2022/01/30 01:39:19;;;;;;;5.50;1.10;;;;;;;3.62;82.10;98474.96;84665;1329;25443;-76
2022/01/30 01:41:31;;;;;;;5.90;1.70;;;;;;;3.58;82.24;98470.61;84580;1330;22892;-84
2022/01/30 01:43:40;;;;;;;3.60;2.00;;;;;;;3.57;81.96;98456.89;84712;1329;25303;-85
2022/01/30 01:45:51;;;;;;;8.30;1.70;;;;;;;3.58;81.81;98470.09;84689;1326;22675;-83
2022/01/30 01:48:04;;;;;;;7.40;1.80;;;;;;;3.61;82.12;98461.06;83995;1325;1003598;-75
2022/01/30 01:50:27;;;;;;;2.40;1.40;;;;;;;3.61;81.75;98463.09;84671;1331;22599;-76
2022/01/30 01:52:35;;;;;;;8.70;2.70;;;;;;;3.63;81.97;98451.98;84678;1321;22626;-75
2022/01/30 01:54:44;;;;;;;5.20;1.40;;;;;;;3.65;81.89;98459.33;84692;1325;22615;-75
2022/01/30 01:56:52;;;;;;;7.90;1.60;;;;;;;3.67;81.72;98453.25;84675;1329;22612;-76
2022/01/30 01:59:03;;;;;;;6.10;2.10;;;;;;;3.67;81.38;98466.13;84684;1328;22684;-75
2022/01/30 02:01:14;;;;;;;4.30;1.20;;;;;;;3.68;81.18;98452.30;84695;1328;23940;-83
2022/01/30 02:03:26;;;;;;;3.80;1.20;;;;;;;3.69;81.38;98457.08;84696;1331;24211;-84
2022/01/30 02:05:36;;;;;;;7.20;1.40;;;;;;;3.70;80.21;98446.05;84716;1332;22600;-83
2022/01/30 02:10:17;;;;;;;7.40;1.90;;;;;;;3.72;79.98;98444.89;84717;1329;22849;-83
2022/01/30 02:12:32;;;;;;;6.20;1.60;;;;;;;3.72;79.87;98451.98;84566;1329;253802;-84
2022/01/30 02:14:47;;;;;;;7.90;1.50;;;;;;;3.71;80.14;98450.47;84717;1329;25323;-84
2022/01/30 02:24:39;;;;;;;8.20;1.50;;;;;;;3.67;80.15;98439.27;84457;1333;22739;-84
2022/01/30 02:26:51;;;;;;;8.10;1.80;;;;;;;3.68;79.95;98432.81;84456;1334;23940;-76
2022/01/30 02:29:02;;;;;;;10.60;2.40;;;;;;;3.72;80.21;98429.90;84451;1335;22664;-76
2022/01/30 02:31:14;;;;;;;11.10;2.10;;;;;;;3.74;80.48;98430.67;84559;1325;22609;-81
2022/01/30 02:33:24;;;;;;;8.30;2.90;;;;;;;3.76;80.62;98430.11;84604;1330;22637;-85
2022/01/30 02:35:35;;;;;;;9.00;2.50;;;;;;;3.75;80.88;98429.81;84630;1325;22611;-84
2022/01/30 02:37:44;;;;;;;6.70;2.40;;;;;;;3.75;80.95;98429.59;84639;1330;22623;-84
2022/01/30 02:39:52;;;;;;;9.10;1.90;;;;;;;3.75;80.90;98418.75;84632;1327;22613;-85
2022/01/30 02:42:00;;;;;;;7.00;1.40;;;;;;;3.75;81.16;98418.21;84677;1330;22593;-85
2022/01/30 02:44:18;;;;;;;11.80;2.30;;;;;;;3.75;81.08;98416.30;84700;1328;22591;-84
2022/01/30 02:46:33;;;;;;;12.90;2.40;;;;;;;3.77;81.00;98404.89;84720;1328;22596;-76
2022/01/30 02:48:51;;;;;;;10.50;3.00;;;;;;;3.77;80.70;98401.56;84703;1330;25458;-76
2022/01/30 02:51:10;;;;;;;10.50;3.00;;;;;;;3.77;80.60;98399.70;84695;1328;24333;-77
2022/01/30 02:53:29;;;;;;;17.50;3.40;;;;;;;3.78;80.63;98396.86;84672;1329;23936;-75
2022/01/30 02:55:38;;;;;;;9.20;2.10;;;;;;;3.78;79.87;98385.34;84671;1324;22672;-76
2022/01/30 02:57:47;;;;;;;6.60;1.70;;;;;;;3.77;80.06;98374.34;84667;1330;22661;-76
2022/01/30 02:59:56;;;;;;;11.10;2.90;;;;;;;3.76;79.51;98380.59;84696;1331;22689;-76
2022/01/30 03:02:08;;;;;;;12.10;1.90;;;;;;;3.75;79.42;98385.65;84721;1329;22711;-76
2022/01/30 03:04:17;;;;;;;7.70;1.80;;;;;;;3.74;79.01;98368.44;84705;1330;25719;-76
2022/01/30 03:06:29;;;;;;;8.60;2.00;;;;;;;3.74;79.05;98393.59;84691;1330;22666;-77
2022/01/30 03:08:40;;;;;;;16.90;4.10;;;;;;;3.76;79.18;98395.09;84674;1328;22606;-75
2022/01/30 03:10:48;;;;;;;9.10;1.80;;;;;;;3.76;78.66;98417.52;84685;1330;22597;-76
2022/01/30 03:13:00;;;;;;;8.60;1.90;;;;;;;3.75;78.66;98413.91;84684;1328;23980;-75
2022/01/30 03:15:10;;;;;;;7.10;2.40;;;;;;;3.74;79.04;98414.30;84664;1328;23915;-75
2022/01/30 03:17:17;;;;;;;;;;;;;;;3.70;79.16;98440.68;84716;1330;22629;-83
2022/01/30 03:19:28;;;;;;;6.30;1.40;;;;;;;3.59;79.35;98421.63;84696;1326;22658;-84
2022/01/30 03:21:40;;;;;;;6.90;1.40;;;;;;;3.48;79.37;98411.73;84705;1324;23201;-76
2022/01/30 03:23:52;;;;;;;7.00;1.40;;;;;;;3.40;79.46;98417.26;84675;1329;22623;-75
2022/01/30 03:26:01;;;;;;;6.10;0.90;;;;;;;3.31;79.57;98412.61;84673;1329;22809;-76
2022/01/30 03:28:12;;;;;;;4.90;1.00;;;;;;;3.24;79.83;98404.96;84676;1329;22627;-76
2022/01/30 03:30:27;;;;;;;3.00;1.10;;;;;;;3.17;79.68;98401.80;84652;1329;25458;-76
2022/01/30 03:32:39;;;;;;;3.00;1.30;;;;;;;3.11;79.91;98401.52;84711;1328;22602;-84
2022/01/30 03:34:48;;;;;;;6.00;1.80;;;;;;;3.05;79.96;98392.61;84713;1326;23906;-84
2022/01/30 03:36:57;;;;;;;4.50;1.00;;;;;;;2.99;79.99;98395.08;84663;1327;24380;-81
2022/01/30 03:39:08;;;;;;;4.30;1.00;;;;;;;2.91;80.06;98385.05;84684;1329;22626;-83
2022/01/30 03:41:17;;;;;;;6.30;1.10;;;;;;;2.84;80.06;98381.03;84724;1330;23897;-76
2022/01/30 03:43:25;;;;;;;8.70;1.10;;;;;;;2.78;80.27;98381.40;84679;1328;22580;-75
2022/01/30 03:45:34;;;;;;;6.00;1.50;;;;;;;2.75;80.32;98382.92;84704;1329;22601;-75
2022/01/30 03:47:42;;;;;;;4.20;1.50;;;;;;;2.74;80.47;98374.85;83208;1329;1003112;-76
2022/01/30 03:49:51;;;;;;;4.30;1.00;;;;;;;2.74;80.68;98369.16;84722;1330;22874;-74
2022/01/30 03:52:02;;;;;;;8.40;1.70;;;;;;;2.75;80.80;98358.30;84708;1328;25402;-84
2022/01/30 03:54:11;;;;;;;5.40;1.00;;;;;;;2.76;80.83;98354.12;84703;1332;23997;-85
2022/01/30 03:56:22;;;;;;;3.60;1.40;;;;;;;2.78;80.85;98351.64;84674;1330;25297;-76
2022/01/30 03:58:34;;;;;;;2.90;1.50;;;;;;;2.80;80.75;98350.00;84681;1329;22631;-76
2022/01/30 04:00:42;;;;;;;10.60;1.90;;;;;;;2.81;80.92;98349.80;84693;1327;22609;-75
2022/01/30 04:02:54;;;;;;;6.50;2.00;;;;;;;2.81;80.94;98339.98;84625;1329;22607;-75
2022/01/30 04:05:03;;;;;;;9.70;2.00;;;;;;;2.81;80.84;98337.58;84686;1325;22600;-75
2022/01/30 04:07:14;;;;;;;5.70;1.50;;;;;;;2.81;80.97;98329.48;84664;1328;22606;-82
2022/01/30 04:09:26;;;;;;;6.00;1.40;;;;;;;2.83;81.01;98331.80;84700;1330;25262;-83
2022/01/30 04:11:34;;;;;;;4.10;1.20;;;;;;;2.85;81.07;98335.49;84670;1329;22603;-76
2022/01/30 04:13:46;;;;;;;7.20;1.70;;;;;;;2.88;81.03;98340.25;84693;1332;23912;-76
2022/01/30 04:15:56;;;;;;;6.80;2.30;;;;;;;2.91;81.14;98328.93;84636;1329;22611;-75
2022/01/30 04:18:05;;;;;;;4.10;1.40;;;;;;;2.93;81.32;98318.49;84703;1326;22554;-81
2022/01/30 04:20:16;;;;;;;11.60;2.20;;;;;;;2.96;81.29;98318.23;84702;1330;22911;-83
2022/01/30 04:22:28;;;;;;;9.30;2.90;;;;;;;2.98;81.21;98311.95;84732;1330;22586;-76
2022/01/30 04:24:36;;;;;;;6.90;2.40;;;;;;;2.99;81.25;98304.83;84667;1330;22717;-75
2022/01/30 04:26:48;;;;;;;30.20;5.60;;;;;;;3.00;81.14;98296.67;84675;1329;22616;-83
2022/01/30 04:29:04;;;;;;;10.50;2.30;;;;;;;3.02;80.99;98293.85;84703;1326;22718;-82
2022/01/30 04:31:16;;;;;;;13.30;3.00;;;;;;;3.03;80.97;98300.55;84683;1329;23827;-81
2022/01/30 04:33:25;;;;;;;9.90;2.50;;;;;;;3.05;80.76;98288.73;84981;1330;22658;-84
2022/01/30 04:35:36;;;;;;;12.60;2.50;;;;;;;3.07;80.77;98277.28;84902;1324;22706;-83
2022/01/30 04:38:00;;;;;;;8.10;1.90;;;;;;;3.08;80.45;98263.45;84721;1328;22671;-75
2022/01/30 04:40:40;;;;;;;5.90;1.40;;;;;;;3.10;80.37;98258.03;84676;1329;22584;-75
2022/01/30 04:55:56;;;;;;;15.60;3.70;;;;;;;3.15;79.30;98235.44;84686;1328;24352;-83
2022/01/30 04:58:02;;;;;;;9.90;1.90;;;;;;;3.15;79.34;98229.08;84682;1330;22638;-75
2022/01/30 05:00:28;;;;;;;12.40;1.50;;;;;;;3.16;79.04;98232.33;84695;1329;25300;-75
2022/01/30 05:02:52;;;;;;;4.60;1.70;;;;;;;3.19;79.15;98214.95;84712;1329;25301;-80
2022/01/30 05:05:23;;;;;;;9.70;2.00;;;;;;;3.22;79.03;98209.33;84675;1329;22599;-82
2022/01/30 05:07:36;;;;;;;12.50;1.90;;;;;;;3.26;79.04;98201.88;84644;1330;22976;-83
2022/01/30 05:09:45;;;;;;;10.20;1.80;;;;;;;3.29;78.36;98192.77;84695;1329;22724;-82
2022/01/30 05:11:54;;;;;;;12.30;2.40;;;;;;;3.31;78.63;98182.53;84726;1329;22590;-76
2022/01/30 05:14:07;;;;;;;8.80;2.50;;;;;;;3.33;78.31;98179.85;84686;1326;22822;-75
2022/01/30 05:16:19;;;;;;;6.90;1.70;;;;;;;3.34;78.42;98185.32;84710;1328;23981;-82
2022/01/30 05:18:32;;;;;;;13.50;3.20;;;;;;;3.36;78.38;98180.63;84704;1329;24826;-83
2022/01/30 05:20:42;;;;;;;5.90;2.70;;;;;;;3.36;78.05;98173.88;84693;1329;22745;-83
2022/01/30 05:22:50;;;;;;;;;;;;;;;3.38;77.93;98168.47;84683;1328;22706;-74
2022/01/30 05:25:00;;;;;;;12.10;1.70;;;;;;;3.37;77.58;98145.73;84678;1330;22728;-75
2022/01/30 05:27:13;;;;;;;5.30;1.50;;;;;;;3.38;77.98;98160.16;84600;1330;22608;-75
2022/01/30 05:29:25;;;;;;;7.80;1.60;;;;;;;3.39;78.26;98156.51;84598;1330;22609;-75
2022/01/30 05:31:37;;;;;;;5.60;1.70;;;;;;;3.37;78.41;98143.66;84692;1330;22617;-83
2022/01/30 05:33:51;;;;;;;6.70;1.90;;;;;;;3.35;78.60;98161.01;84691;1329;24264;-83
2022/01/30 05:36:00;;;;;;;6.40;1.70;;;;;;;3.31;78.88;98166.69;84687;1332;22596;-84
2022/01/30 05:38:12;;;;;;;10.80;2.40;;;;;;;3.26;78.76;98168.27;84713;1330;22712;-74
2022/01/30 05:40:23;;;;;;;11.10;1.50;;;;;;;3.24;78.92;98185.96;84686;1326;22606;-75
2022/01/30 05:42:38;;;;;;;4.80;1.20;;;;;;;3.22;78.74;98182.95;84712;1329;22857;-75
2022/01/30 05:44:56;;;;;;;8.50;1.50;;;;;;;3.20;78.44;98187.88;84655;1325;22685;-74
2022/01/30 05:47:11;;;;;;;6.70;1.30;;;;;;;3.19;78.29;98187.21;84669;1330;22609;-75
2022/01/30 05:49:23;;;;;;;8.70;1.60;;;;;;;3.19;78.17;98196.86;84679;1329;24263;-75
2022/01/30 05:51:32;;;;;;;14.60;1.70;;;;;;;3.18;77.97;98203.96;84705;1328;22617;-76
2022/01/30 05:53:43;;;;;;;7.90;1.80;;;;;;;3.15;77.96;98199.07;84706;1330;22618;-74
2022/01/30 05:55:56;;;;;;;5.80;1.60;;;;;;;3.13;77.85;98197.79;84691;1328;22623;-75
2022/01/30 05:58:08;;;;;;;5.20;1.80;;;;;;;3.09;77.67;98189.02;84699;1324;22689;-82
2022/01/30 06:00:20;;;;;;;12.50;3.10;;;;;;;3.04;77.38;98199.88;84701;1330;22590;-82
2022/01/30 06:02:28;;;;;;;6.40;1.70;;;;;;;3.01;77.29;98193.30;84704;1330;24334;-84
2022/01/30 06:04:40;;;;;;;7.60;1.60;;;;;;;2.99;76.93;98196.84;84694;1331;23983;-83
2022/01/30 06:06:53;;;;;;;7.30;1.80;;;;;;;2.99;76.25;98201.64;84672;1329;25468;-74
2022/01/30 06:09:11;;;;;;;8.30;1.30;;;;;;;3.00;76.47;98206.45;84681;1329;25278;-74
2022/01/30 06:11:20;;;;;;;4.70;1.50;;;;;;;3.01;76.35;98209.52;84619;1330;23968;-75
2022/01/30 06:13:31;;;;;;;9.60;1.90;;;;;;;3.03;76.21;98208.55;84705;1328;24272;-74
2022/01/30 06:15:42;;;;;;;7.00;1.70;;;;;;;3.06;76.48;98199.81;84674;1330;22610;-75
2022/01/30 06:17:51;;;;;;;10.10;2.60;;;;;;;3.08;76.09;98212.11;84683;1324;22599;-74
2022/01/30 06:20:02;;;;;;;8.80;1.80;;;;;;;3.09;75.59;98217.42;84708;1328;22683;-75
2022/01/30 06:22:10;;;;;;;13.80;3.00;;;;;;;3.09;76.03;98211.38;84567;1330;24971;-75
2022/01/30 06:24:19;;;;;;;10.00;2.20;;;;;;;3.09;75.74;98203.27;83956;1328;1003485;-75
2022/01/30 06:26:27;;;;;;;5.60;1.60;;;;;;;3.09;75.56;98209.48;84702;1330;22598;-83
2022/01/30 06:28:39;;;;;;;10.60;1.90;;;;;;;3.09;75.40;98213.09;84709;1329;24266;-84
2022/01/30 06:30:47;;;;;;;5.10;1.30;;;;;;;3.09;75.72;98216.02;84702;1331;22604;-84
2022/01/30 06:32:59;;;;;;;7.40;1.50;;;;;;;3.10;75.11;98218.59;84701;1329;22598;-74
2022/01/30 06:35:12;;;;;;;8.30;2.00;;;;;;;3.10;75.65;98228.58;84705;1331;22607;-75
2022/01/30 06:37:20;;;;;;;7.20;1.50;;;;;;;3.12;75.58;98212.32;84689;1330;22798;-82
2022/01/30 06:39:32;;;;;;;8.00;1.80;;;;;;;3.13;75.23;98225.38;84677;1326;24283;-83
2022/01/30 06:41:43;;;;;;;8.90;1.90;;;;;;;3.13;75.37;98226.92;84627;1330;24319;-76
2022/01/30 06:43:52;;;;;;;8.50;2.10;;;;;;;3.12;75.03;98224.70;84634;1330;22582;-75
2022/01/30 06:46:03;;;;;;;6.20;1.80;;;;;;;3.10;75.11;98222.36;84685;1329;23818;-75
2022/01/30 06:48:15;;;;;;;9.30;1.60;;;;;;;3.09;75.42;98227.25;84701;1321;24239;-75
2022/01/30 06:50:24;;;;;;;10.20;1.70;;;;;;;3.06;75.44;98216.19;84669;1329;22604;-75
2022/01/30 06:52:35;;;;;;;8.10;1.30;;;;;;;3.05;75.38;98215.88;84690;1328;22612;-82
2022/01/30 06:54:44;;;;;;;8.20;1.70;;;;;;;3.05;75.69;98226.20;84688;1325;26451;-83
2022/01/30 06:56:52;;;;;;;5.70;1.10;;;;;;;3.07;75.86;98209.23;84721;1321;22951;-82
2022/01/30 06:59:03;;;;;;;3.50;1.10;;;;;;;3.09;75.76;98206.23;84701;1330;24270;-83
2022/01/30 07:01:12;;;;;;;2.70;1.20;;;;;;;3.11;75.72;98207.89;84740;1330;25445;-82
2022/01/30 07:03:21;;;;;;;8.00;2.90;;;;;;;3.16;75.74;98217.34;84720;1329;22730;-82
2022/01/30 07:05:30;;;;;;;6.60;1.80;;;;;;;3.21;75.45;98203.32;84761;1331;22631;-83
2022/01/30 07:07:37;;;;;;;;;;;;;;;3.27;75.34;98205.48;84911;1331;25272;-84
2022/01/30 07:09:46;;;;;;;7.10;1.50;;;;;;;3.30;75.42;98200.66;84993;1330;22844;-83
2022/01/30 07:11:54;;;;;;;7.90;2.00;;;;;;;3.34;74.97;98196.89;84894;1328;22588;-83
2022/01/30 07:14:03;;;;;;;3.50;1.20;;;;;;;3.37;75.44;98190.23;84886;1328;23199;-83
2022/01/30 07:16:12;;;;;;;7.30;1.70;;;;;;;3.37;75.44;98191.25;84689;1328;22606;-76
2022/01/30 07:18:20;;;;;;;10.70;2.10;;;;;;;3.35;75.66;98193.39;84615;1329;22596;-74
2022/01/30 07:20:28;;;;;;;11.50;2.30;;;;;;;3.34;75.83;98181.20;84694;1331;25447;-74
2022/01/30 07:22:37;;;;;;;22.30;4.50;;;;;;;3.32;75.96;98176.27;84724;1329;22592;-75
2022/01/30 07:24:46;;;;;;;5.70;1.50;;;;;;;3.31;76.12;98178.04;84636;1329;23816;-76
2022/01/30 07:26:55;;;;;;;6.80;1.70;;;;;;;3.33;76.54;98179.00;84584;1331;26482;-74
2022/01/30 07:29:07;;;;;;;4.80;1.20;;;;;;;3.36;76.66;98165.80;84695;1328;24298;-75
2022/01/30 07:31:15;;;;;;;5.20;1.40;;;;;;;3.36;76.65;98151.49;84622;1333;24291;-76
2022/01/30 07:33:24;;;;;;;6.80;2.80;;;;;;;3.36;76.56;98150.45;84567;1330;22639;-75
2022/01/30 07:35:36;;;;;;;7.50;1.90;;;;;;;3.34;76.74;98154.67;84575;1330;24324;-75
2022/01/30 07:37:50;;;;;;;3.80;1.20;;;;;;;3.31;77.15;98161.15;84607;1334;22603;-82
2022/01/30 07:40:00;;;;;;;6.10;1.50;;;;;;;3.31;77.35;98167.05;84589;1331;22706;-83
2022/01/30 07:42:12;;;;;;;3.30;1.30;;;;;;;3.31;77.65;98164.44;84577;1333;23918;-75
2022/01/30 07:44:23;;;;;;;1.50;0.80;;;;;;;3.29;77.81;98156.44;84608;1334;25657;-77
2022/01/30 07:46:31;;;;;;;4.00;1.30;;;;;;;3.27;78.08;98161.02;84539;1327;22608;-75
2022/01/30 07:48:40;;;;;;;3.30;1.10;;;;;;;3.29;78.35;98170.05;84574;1330;22613;-75
2022/01/30 07:50:51;;;;;;;1.80;0.90;;;;;;;3.30;78.58;98178.10;84586;1333;22596;-75
2022/01/30 07:52:59;;;;;;;3.50;1.00;;;;;;;3.28;78.56;98167.70;84572;1330;22622;-75
2022/01/30 07:55:12;;;;;;;2.30;1.20;;;;;;;3.24;78.77;98168.36;84596;1333;22833;-76
2022/01/30 07:57:22;;;;;;;1.60;1.10;;;;;;;3.21;78.70;98168.35;84596;1329;25272;-75
2022/01/30 07:59:30;;;;;;;3.80;0.90;;;;;;;3.16;78.67;98178.71;84582;1332;22602;-75
2022/01/30 08:01:42;;;;;;;2.70;1.20;;;;;;;3.08;78.67;98189.02;84586;1333;23259;-84
2022/01/30 08:03:50;;;;;;;4.90;1.30;;;;;;;3.02;78.70;98189.65;84607;1330;25338;-83
2022/01/30 08:05:59;;;;;;;2.60;1.00;;;;;;;2.97;78.83;98203.30;84592;1330;22936;-83
2022/01/30 08:08:10;;;;;;;1.20;0.50;;;;;;;2.91;78.92;98218.89;84632;1330;22671;-83
2022/01/30 08:10:18;;;;;;;1.30;0.50;;;;;;;2.79;78.90;98206.63;84585;1333;23574;-83
2022/01/30 08:12:27;;;;;;;1.30;0.60;;;;;;;2.72;79.19;98203.46;84593;1330;22600;-74
2022/01/30 08:14:36;;;;;;;1.20;0.60;;;;;;;2.68;79.31;98201.90;84576;1327;22621;-75
2022/01/30 08:16:47;;;;;;;1.70;0.80;;;;;;;2.62;79.53;98213.16;84579;1333;24266;-83
2022/01/30 08:18:56;;;;;;;1.00;0.50;;;;;;;2.53;79.62;98190.28;84568;1334;22604;-82
2022/01/30 08:21:08;;;;;;;2.40;0.60;;;;;;;2.46;79.72;98186.61;84594;1333;22587;-82
2022/01/30 08:23:18;;;;;;;0.70;0.40;;;;;;;2.40;79.93;98193.60;83896;1330;1003625;-80
2022/01/30 08:25:27;;;;;;;2.10;0.60;;;;;;;2.33;80.13;98195.05;84580;1330;22584;-76
2022/01/30 08:27:39;;;;;;;2.00;0.50;;;;;;;2.28;80.36;98201.30;84587;1333;22600;-76
2022/01/30 08:29:50;;;;;;;0.70;0.50;;;;;;;2.30;81.06;98196.36;84566;1330;25496;-75
2022/01/30 08:31:59;;;;;;;0.50;0.30;;;;;;;2.35;80.95;98199.46;84611;1331;22599;-75
2022/01/30 08:34:07;;;;;;;2.80;0.60;;;;;;;2.39;81.24;98196.02;84620;1330;22618;-76
2022/01/30 08:36:16;;;;;;;2.10;1.30;;;;;;;2.41;80.95;98210.72;84647;1333;22629;-82
2022/01/30 08:38:27;;;;;;;1.10;0.70;;;;;;;2.44;81.13;98211.81;84678;1330;22597;-83
2022/01/30 08:40:36;;;;;;;1.10;0.60;;;;;;;2.48;81.19;98204.77;84688;1332;22657;-83
2022/01/30 08:42:48;;;;;;;0.80;0.50;;;;;;;2.52;80.90;98207.20;84689;1328;25954;-74
2022/01/30 08:44:57;;;;;;;4.50;1.00;;;;;;;2.54;81.05;98211.08;84682;1328;22948;-77
2022/01/30 08:47:07;;;;;;;1.60;0.70;;;;;;;2.52;80.83;98216.33;84718;1330;22604;-74
2022/01/30 08:49:15;;;;;;;1.90;0.90;;;;;;;2.50;80.78;98197.66;84674;1326;25493;-74
2022/01/30 08:51:27;;;;;;;2.10;0.80;;;;;;;2.47;80.62;98202.06;84649;1329;23939;-82
2022/01/30 08:53:36;;;;;;;0.90;0.80;;;;;;;2.43;80.39;98210.31;84698;1326;22748;-74
2022/01/30 08:55:48;;;;;;;0.60;0.40;;;;;;;2.38;80.58;98216.89;84694;1331;25562;-75
2022/01/30 08:57:58;;;;;;;5.70;0.60;;;;;;;2.46;81.10;98216.73;84658;1329;23975;-71
2022/01/30 09:00:12;;;;;;;0.30;0.30;;;;;;;2.65;81.58;98210.99;84670;1332;24281;-74
2022/01/30 09:02:22;;;;;;;0.90;0.50;;;;;;;2.96;81.65;98213.48;84720;1330;22593;-75
2022/01/30 09:04:35;;;;;;;1.10;0.50;;;;;;;3.16;81.23;98209.74;84676;1322;22708;-76
2022/01/30 09:06:44;;;;;;;1.10;0.80;;;;;;;3.47;81.72;98211.13;84705;1332;22714;-83
2022/01/30 09:08:52;;;;;;;3.00;0.60;;;;;;;3.75;80.98;98196.62;84689;1330;25307;-82
2022/01/30 09:11:01;;;;;;;1.80;0.60;;;;;;;3.80;80.11;98207.27;84706;1330;22690;-82
2022/01/30 09:13:13;;;;;;;1.50;1.00;;;;;;;3.77;79.48;98210.67;84697;1329;22596;-80
2022/01/30 09:15:21;;;;;;;1.60;0.60;;;;;;;3.76;79.35;98208.85;84672;1329;25448;-83
2022/01/30 09:17:33;;;;;;;3.00;0.70;;;;;;;3.80;79.61;98210.20;83998;1332;1003821;-74
2022/01/30 09:19:45;;;;;;;1.90;0.70;;;;;;;3.87;79.55;98206.06;84623;1330;23785;-74
2022/01/30 09:21:54;;;;;;;1.80;0.90;;;;;;;3.95;79.26;98208.14;84685;1332;22604;-74
2022/01/30 09:24:02;;;;;;;1.20;0.50;;;;;;;3.98;78.98;98209.00;84667;1332;22908;-75
2022/01/30 09:26:11;;;;;;;1.10;0.60;;;;;;;4.00;78.86;98206.54;84676;1329;22709;-77
2022/01/30 09:28:20;;;;;;;3.50;1.70;;;;;;;4.02;78.67;98202.64;84681;1330;25579;-73
2022/01/30 09:30:32;;;;;;;3.60;0.90;;;;;;;4.05;78.64;98206.47;84659;1330;22647;-77
2022/01/30 09:32:40;;;;;;;4.20;0.90;;;;;;;4.04;78.55;98213.92;84004;1329;1003870;-79
2022/01/30 09:34:48;;;;;;;1.40;0.80;;;;;;;4.02;78.27;98210.39;84682;1330;26513;-78
2022/01/30 09:36:57;;;;;;;4.30;1.10;;;;;;;3.97;78.44;98205.80;84630;1331;22633;-75
2022/01/30 09:39:06;;;;;;;4.90;1.60;;;;;;;3.91;78.15;98210.38;84697;1332;22619;-76
2022/01/30 09:41:18;;;;;;;2.80;0.80;;;;;;;3.85;78.42;98210.98;84602;1333;24215;-82
2022/01/30 09:43:33;;;;;;;2.60;0.90;;;;;;;3.82;78.48;98212.67;84725;1332;22699;-82
2022/01/30 09:45:45;;;;;;;4.40;1.90;;;;;;;3.79;78.77;98214.73;84805;1331;22619;-83
2022/01/30 09:47:57;;;;;;;5.40;1.40;;;;;;;3.76;78.77;98218.13;84667;1330;24215;-74
2022/01/30 09:50:08;;;;;;;1.30;0.90;;;;;;;3.76;78.93;98215.73;84676;1329;22751;-74
2022/01/30 09:52:17;;;;;;;4.00;2.00;;;;;;;3.76;78.88;98220.02;84716;1332;22623;-83
2022/01/30 09:54:26;;;;;;;6.80;1.50;;;;;;;3.77;79.09;98216.16;84637;1333;22598;-84
2022/01/30 09:56:40;;;;;;;4.10;1.20;;;;;;;3.76;78.82;98209.15;84711;1332;22628;-82
2022/01/30 09:58:49;;;;;;;3.60;1.70;;;;;;;3.74;78.97;98208.73;84641;1330;23058;-83
2022/01/30 10:00:57;;;;;;;4.00;1.90;;;;;;;3.73;78.96;98204.11;84640;1333;25313;-84
2022/01/30 10:03:08;;;;;;;9.50;2.70;;;;;;;3.72;79.04;98204.85;84647;1333;22650;-84
2022/01/30 10:05:18;;;;;;;7.80;1.80;;;;;;;3.70;78.98;98205.14;84695;1330;23863;-82
2022/01/30 10:07:26;;;;;;;6.40;1.50;;;;;;;3.69;79.02;98210.36;84727;1328;22600;-74
2022/01/30 10:09:42;;;;;;;4.50;1.50;;;;;;;3.68;79.22;98206.58;84662;1329;22662;-75
2022/01/30 10:12:10;;;;;;;6.90;1.70;;;;;;;3.69;79.36;98206.90;84537;1330;226011;-83
2022/01/30 10:14:19;;;;;;;4.40;1.80;;;;;;;3.68;79.23;98200.22;84691;1332;22710;-83
2022/01/30 10:16:27;;;;;;;5.40;2.80;;;;;;;3.68;79.36;98204.52;84697;1328;24392;-83
2022/01/30 10:18:49;;;;;;;7.50;2.00;;;;;;;3.71;79.63;98204.39;84698;1329;22611;-83
2022/01/30 10:20:57;;;;;;;5.20;2.00;;;;;;;3.72;79.43;98193.65;84688;1329;22630;-83
2022/01/30 10:23:09;;;;;;;6.90;2.20;;;;;;;3.70;79.50;98187.20;84684;1332;22606;-74
2022/01/30 10:25:24;;;;;;;8.80;2.60;;;;;;;3.68;79.43;98183.29;84651;1332;23949;-74
2022/01/30 10:27:36;;;;;;;10.20;3.30;;;;;;;3.68;79.62;98184.02;84684;1329;22645;-83
2022/01/30 10:29:44;;;;;;;9.50;2.30;;;;;;;3.68;79.86;98191.59;84698;1332;22684;-83
2022/01/30 10:32:05;;;;;;;7.40;1.90;;;;;;;3.68;79.93;98184.67;84712;1330;22692;-74
2022/01/30 10:34:11;;;;;;;;;;;;;;;3.65;80.03;98192.25;84665;1330;25010;-73
2022/01/30 10:36:29;;;;;;;9.20;2.30;;;;;;;3.60;80.23;98189.88;84683;1324;22651;-73
2022/01/30 10:38:47;;;;;;;3.50;2.10;;;;;;;3.60;80.48;98188.49;84697;1331;22623;-75
2022/01/30 10:41:10;;;;;;;4.20;1.30;;;;;;;3.60;80.40;98198.67;84673;1329;24192;-75
2022/01/30 10:43:21;;;;;;;5.20;2.10;;;;;;;3.58;80.37;98194.60;84704;1331;22858;-83
2022/01/30 10:45:33;;;;;;;7.90;2.70;;;;;;;3.59;80.72;98196.11;84692;1332;24267;-83
2022/01/30 10:47:43;;;;;;;6.40;2.10;;;;;;;3.62;80.82;98188.73;84699;1331;22615;-83
2022/01/30 10:49:51;;;;;;;7.90;2.90;;;;;;;3.65;80.91;98198.63;84662;1328;22632;-82
2022/01/30 10:52:01;;;;;;;9.30;2.30;;;;;;;3.63;80.96;98193.85;84669;1329;22611;-83
2022/01/30 10:54:14;;;;;;;7.90;2.40;;;;;;;3.63;80.83;98188.89;84701;1325;24254;-81
2022/01/30 10:56:27;;;;;;;8.50;2.20;;;;;;;3.65;80.96;98192.79;84674;1328;22612;-85
2022/01/30 10:58:38;;;;;;;8.10;2.00;;;;;;;3.66;81.09;98186.67;84702;1329;22636;-85